createdAt,value
2019-04-28T00:01:35.837Z,18.07
2019-04-28T00:03:37.225Z,18.73
2019-04-28T00:05:38.765Z,17.92
2019-04-28T00:07:41.118Z,17.55
2019-04-28T00:09:42.531Z,18.92
2019-04-28T00:11:43.869Z,21.37
2019-04-28T00:13:45.258Z,24.15
2019-04-28T00:15:46.538Z,21.42
2019-04-28T00:17:47.797Z,27.80
2019-04-28T00:19:49.061Z,25.68
2019-04-28T00:21:58.121Z,19.48
2019-04-28T00:24:11.433Z,25.20
2019-04-28T00:26:31.058Z,22.90
2019-04-28T00:28:33.557Z,20.37
2019-04-28T00:30:35.045Z,25.00
2019-04-28T00:32:39.382Z,25.02
2019-04-28T00:34:41.371Z,20.68
2019-04-28T00:36:44.686Z,28.32
2019-04-28T00:38:45.986Z,24.05
2019-04-28T00:40:47.402Z,21.87
2019-04-28T00:42:48.942Z,18.87
2019-04-28T00:44:51.520Z,19.48
2019-04-28T00:46:52.957Z,20.72
2019-04-28T00:48:54.318Z,22.82
2019-04-28T00:50:55.593Z,26.62
2019-04-28T00:52:58.342Z,20.17
2019-04-28T00:55:01.175Z,19.77
2019-04-28T00:57:02.765Z,15.38
2019-04-28T00:59:04.026Z,25.52
2019-04-28T01:01:11.358Z,16.73
2019-04-28T01:03:13.033Z,17.62
2019-04-28T01:05:14.306Z,17.20
2019-04-28T01:07:15.609Z,18.37
2019-04-28T01:09:17.083Z,22.75
2019-04-28T01:11:18.358Z,23.38
2019-04-28T01:13:21.451Z,20.15
2019-04-28T01:15:39.837Z,19.87
2019-04-28T01:17:43.010Z,22.30
2019-04-28T01:19:49.875Z,24.15
2019-04-28T01:22:10.255Z,24.25
2019-04-28T01:24:12.149Z,19.62
2019-04-28T01:26:13.422Z,25.25
2019-04-28T01:28:14.725Z,24.85
2019-04-28T01:30:20.263Z,26.50
2019-04-28T01:32:32.127Z,29.50
2019-04-28T01:34:33.413Z,28.83
2019-04-28T01:36:36.310Z,26.37
2019-04-28T01:38:37.594Z,29.05
2019-04-28T01:40:38.902Z,31.50
2019-04-28T01:42:41.283Z,25.50
2019-04-28T01:44:42.793Z,27.37
2019-04-28T01:46:44.065Z,30.70
2019-04-28T01:48:45.367Z,29.82
2019-04-28T01:50:46.829Z,26.45
2019-04-28T01:52:49.711Z,28.15
2019-04-28T01:54:51.869Z,27.05
2019-04-28T01:56:53.297Z,35.38
2019-04-28T01:58:54.715Z,34.38
2019-04-28T02:00:55.978Z,33.73
2019-04-28T02:02:57.657Z,32.42
2019-04-28T02:07:01.480Z,33.02
2019-04-28T02:09:06.441Z,33.40
2019-04-28T02:11:10.105Z,31.62
2019-04-28T02:13:11.603Z,29.82
2019-04-28T02:15:12.961Z,29.15
2019-04-28T02:17:14.232Z,30.20
2019-04-28T02:19:15.746Z,33.20
2019-04-28T02:21:25.710Z,37.42
2019-04-28T02:23:29.910Z,34.48
2019-04-28T02:25:31.271Z,34.67
2019-04-28T02:27:32.654Z,31.60
2019-04-28T02:29:33.913Z,36.93
2019-04-28T02:31:35.219Z,29.18
2019-04-28T02:33:36.586Z,29.57
2019-04-28T02:35:38.166Z,34.35
2019-04-28T02:39:42.338Z,34.85
2019-04-28T02:41:43.689Z,41.18
2019-04-28T02:43:45.235Z,31.40
2019-04-28T02:45:52.967Z,38.33
2019-04-28T02:47:53.345Z,40.85
2019-04-28T02:50:00.621Z,38.70
2019-04-28T02:52:20.659Z,47.43
2019-04-28T02:54:21.536Z,44.98
2019-04-28T02:56:22.802Z,38.35
2019-04-28T02:58:24.075Z,41.02
2019-04-28T03:00:25.365Z,34.53
2019-04-28T03:02:26.645Z,38.23
2019-04-28T03:04:30.719Z,41.70
2019-04-28T03:06:31.205Z,36.17
2019-04-28T03:08:32.487Z,38.85
2019-04-28T03:10:33.971Z,35.78
2019-04-28T03:12:35.330Z,36.17
2019-04-28T03:14:36.606Z,34.85
2019-04-28T03:16:40.781Z,39.95
2019-04-28T03:18:41.519Z,34.60
2019-04-28T03:22:44.229Z,41.15
2019-04-28T03:24:47.289Z,40.20
2019-04-28T03:26:52.979Z,35.38
2019-04-28T03:29:01.028Z,38.25
2019-04-28T03:31:34.718Z,32.63
2019-04-28T03:33:17.056Z,37.48
2019-04-28T03:35:13.397Z,34.27
2019-04-28T03:37:14.984Z,31.90
2019-04-28T03:39:16.246Z,35.35
2019-04-28T03:41:17.547Z,38.53
2019-04-28T03:43:21.299Z,31.42
2019-04-28T03:45:23.886Z,32.20
2019-04-28T03:47:25.258Z,34.13
2019-04-28T03:49:33.710Z,31.62
2019-04-28T03:51:35.334Z,35.63
2019-04-28T03:53:44.558Z,38.85
2019-04-28T03:55:57.805Z,34.95
2019-04-28T03:58:15.020Z,31.45
2019-04-28T04:00:36.072Z,33.00
2019-04-28T04:02:46.768Z,29.77
2019-04-28T04:04:53.560Z,33.05
2019-04-28T04:07:04.817Z,31.87
2019-04-28T04:09:24.204Z,34.10
2019-04-28T04:11:52.153Z,30.43
2019-04-28T04:14:11.282Z,31.77
2019-04-28T04:16:27.286Z,37.40
2019-04-28T04:18:44.594Z,34.98
2019-04-28T04:21:00.846Z,27.98
2019-04-28T04:23:11.494Z,30.25
2019-04-28T04:25:13.671Z,33.92
2019-04-28T04:27:14.952Z,28.10
2019-04-28T04:29:16.545Z,26.27
2019-04-28T04:33:21.092Z,30.27
2019-04-28T04:35:22.452Z,25.90
2019-04-28T04:37:23.728Z,26.87
2019-04-28T04:39:24.999Z,31.05
2019-04-28T04:41:26.352Z,32.15
2019-04-28T04:43:27.956Z,28.32
2019-04-28T04:47:32.875Z,23.92
2019-04-28T04:49:34.580Z,35.83
2019-04-28T04:51:36.196Z,23.75
2019-04-28T04:53:37.753Z,27.32
2019-04-28T04:57:42.166Z,26.62
2019-04-28T04:59:43.446Z,24.80
2019-04-28T05:01:46.650Z,25.50
2019-04-28T05:03:52.436Z,24.30
2019-04-28T05:05:53.703Z,25.20
2019-04-28T05:07:54.984Z,23.38
2019-04-28T05:09:56.267Z,22.70
2019-04-28T05:11:57.530Z,26.87
2019-04-28T05:13:59.660Z,22.10
2019-04-28T05:16:01.442Z,20.40
2019-04-28T05:18:03.297Z,25.35
2019-04-28T05:20:05.145Z,24.40
2019-04-28T05:22:06.918Z,23.15
2019-04-28T05:24:22.037Z,21.17
2019-04-28T05:26:24.805Z,17.48
2019-04-28T05:28:26.097Z,25.65
2019-04-28T05:30:29.277Z,20.65
2019-04-28T05:32:42.490Z,24.45
2019-04-28T05:34:34.123Z,20.08
2019-04-28T05:36:41.103Z,22.85
2019-04-28T05:38:40.485Z,22.22
2019-04-28T05:40:42.422Z,24.82
2019-04-28T05:42:45.681Z,24.95
2019-04-28T05:44:46.958Z,22.48
2019-04-28T05:46:50.369Z,21.95
2019-04-28T05:48:53.583Z,18.27
2019-04-28T05:50:56.846Z,26.37
2019-04-28T05:53:19.303Z,24.60
2019-04-28T05:55:26.375Z,19.67
2019-04-28T05:57:32.508Z,26.55
2019-04-28T05:59:50.712Z,19.25
2019-04-28T06:01:56.545Z,24.55
2019-04-28T06:03:57.844Z,18.70
2019-04-28T06:05:59.958Z,25.23
2019-04-28T06:08:23.861Z,15.80
2019-04-28T06:10:25.149Z,23.12
2019-04-28T06:12:26.717Z,17.85
2019-04-28T06:16:31.584Z,20.70
2019-04-28T06:18:35.869Z,23.52
2019-04-28T06:20:37.498Z,17.20
2019-04-28T06:24:42.445Z,22.95
2019-04-28T06:26:43.713Z,19.82
2019-04-28T06:28:45.031Z,19.45
2019-04-28T06:30:46.314Z,23.47
2019-04-28T06:32:47.592Z,18.90
2019-04-28T06:34:48.869Z,25.30
2019-04-28T06:36:50.205Z,17.15
2019-04-28T06:38:51.489Z,19.50
2019-04-28T06:40:52.801Z,23.10
2019-04-28T06:42:54.075Z,21.62
2019-04-28T06:44:55.412Z,21.10
2019-04-28T06:46:56.756Z,24.05
2019-04-28T06:48:58.057Z,15.72
2019-04-28T06:50:59.338Z,20.08
2019-04-28T06:53:02.908Z,24.90
2019-04-28T06:55:05.997Z,18.27
2019-04-28T06:57:07.263Z,20.08
2019-04-28T06:59:08.526Z,19.60
2019-04-28T07:01:09.822Z,22.73
2019-04-28T07:03:22.650Z,22.30
2019-04-28T07:05:14.353Z,23.50
2019-04-28T07:07:15.676Z,21.23
2019-04-28T07:09:17.044Z,21.87
2019-04-28T07:11:18.419Z,26.68
2019-04-28T07:13:20.735Z,20.40
2019-04-28T07:15:22.528Z,26.30
2019-04-28T07:19:25.106Z,17.37
2019-04-28T07:21:37.061Z,18.77
2019-04-28T07:23:39.733Z,21.42
2019-04-28T07:25:41.019Z,20.30
2019-04-28T07:27:42.302Z,22.65
2019-04-28T07:29:43.576Z,18.92
2019-04-28T07:31:44.847Z,21.23
2019-04-28T07:33:46.117Z,28.23
2019-04-28T07:35:47.393Z,22.05
2019-04-28T07:37:48.645Z,23.22
2019-04-28T07:39:50.201Z,20.40
2019-04-28T07:41:51.477Z,16.62
2019-04-28T07:43:52.737Z,26.15
2019-04-28T07:45:54.012Z,22.60
2019-04-28T07:47:55.889Z,25.40
2019-04-28T07:49:57.169Z,23.05
2019-04-28T07:52:03.042Z,20.40
2019-04-28T07:54:12.320Z,25.85
2019-04-28T07:56:13.619Z,20.05
2019-04-28T07:58:14.881Z,22.13
2019-04-28T08:00:18.250Z,22.27
2019-04-28T08:02:19.925Z,17.37
2019-04-28T08:06:22.809Z,23.02
2019-04-28T08:08:24.109Z,15.38
2019-04-28T08:10:25.428Z,22.00
2019-04-28T08:12:26.871Z,25.80
2019-04-28T08:14:28.124Z,20.52
2019-04-28T08:16:29.625Z,22.93
2019-04-28T08:20:33.889Z,23.80
2019-04-28T08:24:36.398Z,14.00
2019-04-28T08:48:53.237Z,19.20
2019-04-28T08:50:54.560Z,13.22
2019-04-28T08:52:55.914Z,18.85
2019-04-28T08:54:57.174Z,19.30
2019-04-28T08:58:59.744Z,17.70
2019-04-28T09:09:08.214Z,24.25
2019-04-28T09:11:09.880Z,17.97
2019-04-28T09:41:25.070Z,19.90
2019-04-28T09:43:51.755Z,21.80
2019-04-28T11:53:34.414Z,5.15
2019-04-28T11:55:36.877Z,5.30
2019-04-28T18:09:12.276Z,4.85
2019-04-28T18:17:38.077Z,4.85
2019-04-28T18:19:39.353Z,5.75
2019-04-28T18:21:40.709Z,4.97
2019-04-28T18:23:42.084Z,5.35
2019-04-28T18:25:43.342Z,5.67
2019-04-28T19:35:43.138Z,8.55
2019-04-28T19:37:44.472Z,10.20
2019-04-28T19:39:48.012Z,9.80
2019-04-28T19:41:49.214Z,11.28
2019-04-28T19:43:50.772Z,11.22
2019-04-28T19:45:53.995Z,11.10
2019-04-28T19:47:55.262Z,13.22
2019-04-28T19:49:56.580Z,9.80
2019-04-28T19:51:58.026Z,12.25
2019-04-28T20:04:31.597Z,12.50
2019-04-28T20:06:32.857Z,15.50
2019-04-28T20:08:34.135Z,11.97
2019-04-28T20:10:35.586Z,12.53
2019-04-28T20:12:37.046Z,12.40
2019-04-28T20:14:38.322Z,13.38
2019-04-28T20:16:39.578Z,11.65
2019-04-28T20:18:40.933Z,11.40
2019-04-28T20:20:42.621Z,11.20
2019-04-28T20:22:44.072Z,10.78
2019-04-28T20:24:47.333Z,10.23
2019-04-28T20:26:48.639Z,12.63
2019-04-28T20:28:50.050Z,8.80
2019-04-28T20:30:51.397Z,10.20
2019-04-28T20:33:06.146Z,9.58
2019-04-28T20:34:56.180Z,12.00
2019-04-28T20:36:59.418Z,13.28
2019-04-28T20:39:02.946Z,10.63
2019-04-28T20:41:08.035Z,13.03
2019-04-28T20:43:11.554Z,10.48
2019-04-28T20:45:14.740Z,12.45
2019-04-28T20:47:16.161Z,10.00
2019-04-28T20:49:17.438Z,12.43
2019-04-28T20:51:18.828Z,12.00
2019-04-28T20:53:20.114Z,13.18
2019-04-28T20:55:21.461Z,13.72
2019-04-28T20:57:22.732Z,8.28
2019-04-28T20:59:24.129Z,12.63
2019-04-28T21:01:25.413Z,11.28
2019-04-28T21:03:27.112Z,10.82
2019-04-28T21:07:29.826Z,6.47
2019-04-28T21:09:31.170Z,7.87
2019-04-28T21:11:32.445Z,11.03
2019-04-28T21:13:33.781Z,8.58
2019-04-28T21:15:35.062Z,11.22
2019-04-28T21:17:36.337Z,9.85
2019-04-28T21:19:37.602Z,8.88
2019-04-28T21:21:38.884Z,10.00
2019-04-28T21:23:40.253Z,9.23
2019-04-28T21:25:41.533Z,12.20
2019-04-28T21:27:42.797Z,8.58
2019-04-28T21:29:44.073Z,8.53
2019-04-28T21:31:45.650Z,8.80
2019-04-28T21:33:46.925Z,10.05
2019-04-28T21:35:48.231Z,10.40
2019-04-28T21:37:49.565Z,8.15
2019-04-28T21:39:50.829Z,8.33
2019-04-28T21:41:52.371Z,7.65
2019-04-28T21:46:12.201Z,10.20
2019-04-28T21:48:15.375Z,8.50
2019-04-28T21:50:16.641Z,10.48
2019-04-28T21:52:17.897Z,10.08
2019-04-28T21:54:19.169Z,10.15
2019-04-28T21:56:20.446Z,9.68
2019-04-28T21:58:32.527Z,12.80
2019-04-28T22:00:33.166Z,8.40
2019-04-28T22:02:52.933Z,8.18
2019-04-28T22:04:54.565Z,7.37
2019-04-28T22:06:56.139Z,6.53
2019-04-28T22:08:57.531Z,11.93
2019-04-28T22:10:58.813Z,10.78
2019-04-28T22:13:00.357Z,10.25
2019-04-28T22:15:01.909Z,9.75
2019-04-28T22:17:04.403Z,9.40
2019-04-28T22:19:05.923Z,9.98
2019-04-28T22:21:07.198Z,9.53
2019-04-28T22:23:18.686Z,9.85
2019-04-28T22:25:24.715Z,10.88
2019-04-28T22:27:28.183Z,9.38
2019-04-28T22:29:29.540Z,10.68
2019-04-28T22:31:30.834Z,9.85
2019-04-28T22:33:32.123Z,9.43
2019-04-28T22:35:33.417Z,11.55
2019-04-28T22:37:34.901Z,10.80
2019-04-28T22:39:36.413Z,9.33
2019-04-28T22:41:39.593Z,10.58
2019-04-28T22:43:41.146Z,16.20
2019-04-28T22:45:42.754Z,15.60
2019-04-28T22:47:44.014Z,17.27
2019-04-28T22:49:45.282Z,14.20
2019-04-28T22:51:46.894Z,11.83
2019-04-28T22:55:51.933Z,13.62
2019-04-28T22:58:03.969Z,9.90
2019-04-28T23:00:10.809Z,9.63
2019-04-28T23:02:15.881Z,9.95
2019-04-28T23:04:20.157Z,10.38
2019-04-28T23:06:21.429Z,9.88
2019-04-28T23:08:22.685Z,8.95
2019-04-28T23:10:24.370Z,12.82
2019-04-28T23:14:27.408Z,14.75
2019-04-28T23:18:30.289Z,18.50
2019-04-28T23:20:33.901Z,15.48
2019-04-28T23:22:46.857Z,14.10
2019-04-28T23:24:40.561Z,15.18
2019-04-28T23:26:41.834Z,10.95
2019-04-28T23:28:44.094Z,13.85
2019-04-28T23:30:46.163Z,10.95
2019-04-28T23:32:47.438Z,8.00
2019-04-28T23:34:49.019Z,8.88
2019-04-28T23:36:51.463Z,9.25
2019-04-28T23:38:52.719Z,9.73
2019-04-28T23:40:58.433Z,8.73
2019-04-28T23:43:10.237Z,8.40
2019-04-28T23:45:12.715Z,11.33
2019-04-28T23:47:14.159Z,9.15
2019-04-28T23:49:15.528Z,11.12
2019-04-28T23:51:18.901Z,8.20
2019-04-28T23:53:38.925Z,11.22
2019-04-28T23:55:40.185Z,10.45
2019-04-28T23:57:41.505Z,8.95
2019-04-28T23:59:42.785Z,8.25
